createdAt,value
2023-04-18T00:00:22.851Z,73.39
2023-04-18T00:02:53.907Z,73.82
2023-04-18T00:05:22.298Z,74.17
2023-04-18T00:07:52.692Z,73.45
2023-04-18T00:10:20.517Z,73.84
2023-04-18T00:12:48.920Z,73.78
2023-04-18T00:15:17.072Z,73.80
2023-04-18T00:17:44.874Z,74.26
2023-04-18T00:20:13.394Z,73.58
2023-04-18T00:22:42.564Z,73.33
2023-04-18T00:25:12.434Z,73.39
2023-04-18T00:27:40.645Z,73.77
2023-04-18T00:30:10.018Z,74.40
2023-04-18T00:32:38.858Z,74.11
2023-04-18T00:35:07.588Z,73.96
2023-04-18T00:37:35.356Z,73.73
2023-04-18T00:40:03.123Z,73.96
2023-04-18T00:42:32.249Z,73.96
2023-04-18T00:44:59.961Z,73.42
2023-04-18T00:47:27.781Z,73.38
2023-04-18T00:49:55.999Z,74.07
2023-04-18T00:52:27.046Z,73.25
2023-04-18T00:54:55.641Z,73.94
2023-04-18T00:57:23.636Z,74.52
2023-04-18T00:59:53.031Z,74.47
2023-04-18T01:02:21.266Z,74.28
2023-04-18T01:04:49.170Z,73.78
2023-04-18T01:07:16.928Z,73.76
2023-04-18T01:09:45.576Z,73.65
2023-04-18T01:12:13.882Z,73.92
2023-04-18T01:14:42.834Z,74.14
2023-04-18T01:17:13.439Z,74.10
2023-04-18T01:19:41.293Z,73.83
2023-04-18T01:22:11.319Z,74.67
2023-04-18T01:24:40.990Z,74.26
2023-04-18T01:27:12.383Z,73.60
2023-04-18T01:29:40.940Z,73.46
2023-04-18T01:32:08.792Z,74.21
2023-04-18T01:34:37.913Z,73.87
2023-04-18T01:37:07.060Z,74.11
2023-04-18T01:39:34.817Z,73.67
2023-04-18T01:42:04.007Z,73.89
2023-04-18T01:44:31.769Z,74.78
2023-04-18T01:46:59.553Z,74.09
2023-04-18T01:49:27.524Z,74.13
2023-04-18T01:51:55.318Z,74.49
2023-04-18T01:54:23.148Z,74.86
2023-04-18T01:56:53.537Z,73.95
2023-04-18T01:59:22.706Z,74.62
2023-04-18T02:01:50.545Z,74.63
2023-04-18T02:04:18.617Z,74.49
2023-04-18T02:06:47.801Z,74.03
2023-04-18T02:09:16.164Z,74.67
2023-04-18T02:11:44.281Z,74.34
2023-04-18T02:14:12.277Z,74.64
2023-04-18T02:16:41.575Z,74.12
2023-04-18T02:19:09.447Z,74.55
2023-04-18T02:21:37.207Z,74.15
2023-04-18T02:24:05.152Z,74.22
2023-04-18T02:26:32.916Z,74.05
2023-04-18T02:29:00.672Z,74.07
2023-04-18T02:31:30.320Z,74.39
2023-04-18T02:33:59.463Z,74.54
2023-04-18T02:36:28.105Z,74.54
2023-04-18T02:38:56.102Z,74.54
2023-04-18T02:41:24.199Z,74.44
2023-04-18T02:43:51.933Z,74.67
2023-04-18T02:46:21.256Z,74.47
2023-04-18T02:48:50.014Z,74.55
2023-04-18T02:51:26.738Z,74.66
2023-04-18T02:53:55.645Z,74.95
2023-04-18T02:56:25.170Z,74.73
2023-04-18T02:59:31.256Z,74.39
2023-04-18T03:02:12.585Z,74.20
2023-04-18T03:04:47.530Z,73.97
2023-04-18T03:07:16.777Z,74.37
2023-04-18T03:09:44.890Z,73.94
2023-04-18T03:12:20.222Z,75.04
2023-04-18T03:14:48.444Z,74.61
2023-04-18T03:17:16.441Z,75.18
2023-04-18T03:19:48.748Z,74.93
2023-04-18T03:22:20.979Z,74.48
2023-04-18T03:24:56.035Z,74.94
2023-04-18T03:27:35.248Z,74.86
2023-04-18T03:30:03.788Z,74.37
2023-04-18T03:32:35.143Z,74.67
2023-04-18T03:35:03.825Z,75.27
2023-04-18T03:37:33.192Z,74.95
2023-04-18T03:40:02.270Z,75.10
2023-04-18T03:42:31.211Z,74.58
2023-04-18T03:44:59.795Z,74.77
2023-04-18T03:47:28.378Z,75.12
2023-04-18T03:49:58.856Z,75.01
2023-04-18T03:52:29.710Z,75.20
2023-04-18T03:54:59.164Z,74.51
2023-04-18T03:57:33.477Z,74.77
2023-04-18T04:00:05.011Z,75.14
2023-04-18T04:02:43.602Z,75.64
2023-04-18T04:05:18.447Z,75.26
2023-04-18T04:07:47.906Z,75.03
2023-04-18T04:10:17.048Z,75.32
2023-04-18T04:12:44.864Z,75.29
2023-04-18T04:15:13.021Z,74.87
2023-04-18T04:17:47.766Z,74.90
2023-04-18T04:20:22.902Z,75.29
2023-04-18T04:22:52.494Z,74.94
2023-04-18T04:25:24.628Z,74.92
2023-04-18T04:27:54.452Z,75.35
2023-04-18T04:30:24.022Z,74.66
2023-04-18T04:32:51.933Z,75.52
2023-04-18T04:35:20.308Z,75.73
2023-04-18T04:37:48.300Z,75.66
2023-04-18T04:40:27.067Z,75.06
2023-04-18T04:43:06.113Z,75.20
2023-04-18T04:45:39.551Z,75.17
2023-04-18T04:48:07.520Z,75.30
2023-04-18T04:50:38.262Z,75.46
2023-04-18T04:53:06.289Z,75.42
2023-04-18T04:55:36.124Z,75.57
2023-04-18T04:58:05.639Z,75.60
2023-04-18T05:00:44.198Z,74.99
2023-04-18T05:03:12.439Z,75.58
2023-04-18T05:05:40.527Z,75.60
2023-04-18T05:08:08.292Z,75.79
2023-04-18T05:10:37.810Z,75.49
2023-04-18T05:13:06.027Z,75.43
2023-04-18T05:15:33.806Z,75.87
2023-04-18T05:18:01.666Z,76.25
2023-04-18T05:20:29.451Z,76.01
2023-04-18T05:22:57.228Z,75.77
2023-04-18T05:25:24.973Z,75.43
2023-04-18T05:27:54.104Z,75.38
2023-04-18T05:30:21.917Z,76.04
2023-04-18T05:32:49.717Z,75.41
2023-04-18T05:35:17.547Z,75.60
2023-04-18T05:37:45.384Z,75.88
2023-04-18T05:40:14.296Z,75.71
2023-04-18T05:42:42.038Z,76.03
2023-04-18T05:45:12.017Z,76.16
2023-04-18T05:47:39.802Z,76.16
2023-04-18T05:50:08.889Z,76.22
2023-04-18T05:52:37.736Z,76.00
2023-04-18T05:55:06.112Z,75.87
2023-04-18T05:57:33.903Z,75.73
2023-04-18T06:00:01.869Z,76.05
2023-04-18T06:02:31.175Z,75.92
2023-04-18T06:04:59.247Z,76.25
2023-04-18T06:07:27.140Z,75.75
2023-04-18T06:09:55.006Z,76.23
2023-04-18T06:12:22.774Z,76.53
2023-04-18T06:14:50.856Z,76.37
2023-04-18T06:17:19.166Z,76.56
2023-04-18T06:19:48.265Z,76.18
2023-04-18T06:22:16.050Z,75.75
2023-04-18T06:24:43.785Z,76.25
2023-04-18T06:27:24.068Z,76.08
2023-04-18T06:29:55.943Z,76.74
2023-04-18T06:32:23.751Z,75.84
2023-04-18T06:34:53.079Z,76.61
2023-04-18T06:37:21.134Z,76.58
2023-04-18T06:39:48.921Z,76.32
2023-04-18T06:42:16.658Z,76.00
2023-04-18T06:44:48.785Z,76.87
2023-04-18T06:47:16.855Z,76.11
2023-04-18T06:49:44.585Z,76.71
2023-04-18T06:52:13.771Z,76.89
2023-04-18T06:54:41.565Z,76.50
2023-04-18T06:57:09.770Z,76.20
2023-04-18T06:59:37.545Z,76.85
2023-04-18T07:02:05.397Z,76.85
2023-04-18T07:04:33.250Z,76.63
2023-04-18T07:07:01.370Z,76.38
2023-04-18T07:09:30.711Z,76.42
2023-04-18T07:11:58.521Z,77.00
2023-04-18T07:14:26.334Z,76.57
2023-04-18T07:16:54.201Z,76.35
2023-04-18T07:19:21.977Z,76.75
2023-04-18T07:21:49.767Z,76.36
2023-04-18T07:24:17.527Z,77.01
2023-04-18T07:26:46.675Z,76.52
2023-04-18T07:29:14.441Z,76.85
2023-04-18T07:31:42.216Z,76.78
2023-04-18T07:34:10.089Z,76.46
2023-04-18T07:36:38.050Z,76.80
2023-04-18T07:39:05.825Z,76.73
2023-04-18T07:41:33.857Z,77.09
2023-04-18T07:44:03.336Z,77.05
2023-04-18T07:46:32.444Z,77.03
2023-04-18T07:49:02.102Z,76.68
2023-04-18T07:51:31.849Z,76.86
2023-04-18T07:53:59.773Z,76.76
2023-04-18T07:56:27.710Z,76.90
2023-04-18T07:58:55.616Z,77.02
2023-04-18T08:01:27.076Z,77.13
2023-04-18T08:03:56.586Z,77.18
2023-04-18T08:06:24.548Z,76.83
2023-04-18T08:08:52.407Z,76.95
2023-04-18T08:11:20.164Z,76.65
2023-04-18T08:13:47.935Z,77.22
2023-04-18T08:16:17.528Z,77.13
2023-04-18T08:18:46.843Z,77.18
2023-04-18T08:21:14.650Z,77.08
2023-04-18T08:23:42.417Z,76.81
2023-04-18T08:26:10.201Z,76.91
2023-04-18T08:28:38.006Z,77.08
2023-04-18T08:31:06.328Z,76.92
2023-04-18T08:33:34.096Z,77.08
2023-04-18T08:36:03.314Z,77.14
2023-04-18T08:38:31.096Z,77.03
2023-04-18T08:40:58.886Z,77.03
2023-04-18T08:43:26.870Z,77.13
2023-04-18T08:46:00.273Z,76.99
2023-04-18T08:48:28.827Z,76.87
2023-04-18T08:50:58.537Z,77.00
2023-04-18T08:53:28.001Z,76.92
2023-04-18T08:55:56.401Z,77.46
2023-04-18T08:58:26.991Z,77.15
2023-04-18T09:00:55.653Z,76.99
2023-04-18T09:03:40.748Z,76.92
2023-04-18T09:06:13.696Z,76.87
2023-04-18T09:08:44.490Z,77.23
2023-04-18T09:11:23.293Z,76.87
2023-04-18T09:13:51.838Z,76.73
2023-04-18T09:16:22.798Z,76.65
2023-04-18T09:19:13.131Z,77.31
2023-04-18T09:21:44.245Z,77.21
2023-04-18T09:24:23.813Z,76.84
2023-04-18T09:26:53.800Z,76.72
2023-04-18T09:29:23.366Z,77.16
2023-04-18T09:31:59.759Z,76.81
2023-04-18T09:34:28.136Z,77.17
2023-04-18T09:37:14.838Z,76.59
2023-04-18T09:39:45.467Z,76.77
2023-04-18T09:42:14.007Z,76.86
2023-04-18T09:45:03.637Z,76.57
2023-04-18T09:47:32.294Z,77.07
2023-04-18T09:50:00.149Z,76.59
2023-04-18T09:52:35.236Z,76.64
2023-04-18T09:55:06.543Z,76.49
2023-04-18T09:57:36.008Z,76.78
2023-04-18T10:00:17.225Z,76.58
2023-04-18T10:02:58.779Z,76.64
2023-04-18T10:05:28.575Z,76.48
2023-04-18T10:07:56.933Z,76.24
2023-04-18T10:10:26.581Z,76.59
2023-04-18T10:12:56.387Z,76.32
2023-04-18T10:15:26.368Z,76.24
2023-04-18T10:18:04.357Z,76.44
2023-04-18T10:20:34.670Z,76.18
2023-04-18T10:23:36.240Z,76.18
2023-04-18T10:26:06.351Z,76.13
2023-04-18T10:28:57.787Z,76.20
2023-04-18T10:31:27.088Z,75.97
2023-04-18T10:34:04.498Z,76.02
2023-04-18T10:36:34.034Z,75.78
2023-04-18T10:39:04.086Z,76.01
2023-04-18T10:41:34.609Z,75.82
2023-04-18T10:44:22.554Z,75.83
2023-04-18T10:47:23.487Z,75.83
2023-04-18T10:49:56.013Z,75.67
2023-04-18T10:52:23.924Z,75.82
2023-04-18T10:54:56.067Z,75.75
2023-04-18T10:57:38.045Z,75.99
2023-04-18T11:00:11.073Z,75.43
2023-04-18T11:02:39.488Z,75.40
2023-04-18T11:05:09.131Z,75.62
2023-04-18T11:07:37.918Z,75.85
2023-04-18T11:10:07.263Z,75.69
2023-04-18T11:12:37.879Z,75.59
2023-04-18T11:15:12.040Z,75.32
2023-04-18T11:17:41.096Z,75.08
2023-04-18T11:20:11.242Z,75.74
2023-04-18T11:22:47.624Z,75.33
2023-04-18T11:25:16.316Z,75.02
2023-04-18T11:27:47.003Z,75.35
2023-04-18T11:30:16.130Z,75.26
2023-04-18T11:32:44.166Z,75.49
2023-04-18T11:35:13.782Z,74.98
2023-04-18T11:37:42.923Z,75.43
2023-04-18T11:40:11.626Z,74.89
2023-04-18T11:42:41.419Z,75.38
2023-04-18T11:45:14.992Z,75.06
2023-04-18T11:47:44.136Z,75.11
2023-04-18T11:50:13.813Z,74.91
2023-04-18T11:52:42.945Z,75.17
2023-04-18T11:55:17.393Z,74.85
2023-04-18T11:57:51.801Z,75.21
2023-04-18T12:00:32.379Z,74.67
2023-04-18T12:03:01.808Z,74.90
2023-04-18T12:05:31.176Z,74.76
2023-04-18T12:08:06.995Z,75.02
2023-04-18T12:10:35.830Z,75.04
2023-04-18T12:13:07.998Z,74.95
2023-04-18T12:15:40.374Z,74.63
2023-04-18T12:18:09.279Z,74.73
2023-04-18T12:20:39.182Z,75.01
2023-04-18T12:23:07.723Z,74.56
2023-04-18T12:25:36.345Z,74.73
2023-04-18T12:28:14.703Z,74.33
2023-04-18T12:30:44.016Z,74.44
2023-04-18T12:33:12.528Z,74.48
2023-04-18T12:35:40.388Z,74.38
2023-04-18T12:38:08.164Z,74.70
2023-04-18T12:40:35.990Z,74.70
2023-04-18T12:43:04.085Z,74.53
2023-04-18T12:45:32.105Z,74.25
2023-04-18T12:48:01.378Z,74.53
2023-04-18T12:50:29.346Z,74.40
2023-04-18T12:52:59.270Z,74.16
2023-04-18T12:55:27.554Z,74.00
2023-04-18T12:57:56.618Z,74.24
2023-04-18T13:00:27.060Z,74.44
2023-04-18T13:02:54.993Z,74.22
2023-04-18T13:05:25.941Z,74.13
2023-04-18T13:08:08.612Z,74.19
2023-04-18T13:10:40.923Z,74.11
2023-04-18T13:13:08.672Z,74.27
2023-04-18T13:15:36.534Z,73.96
2023-04-18T13:18:05.104Z,74.01
2023-04-18T13:20:35.015Z,74.04
2023-04-18T13:23:03.710Z,74.05
2023-04-18T13:25:31.505Z,73.80
2023-04-18T13:28:00.778Z,74.03
2023-04-18T13:30:28.840Z,74.04
2023-04-18T13:32:56.680Z,73.63
2023-04-18T13:35:24.578Z,73.87
2023-04-18T13:37:53.724Z,73.81
2023-04-18T13:40:21.713Z,73.79
2023-04-18T13:42:49.458Z,73.77
2023-04-18T13:45:17.230Z,73.56
2023-04-18T13:47:45.057Z,73.39
2023-04-18T13:50:12.886Z,73.49
2023-04-18T13:52:40.661Z,73.60
2023-04-18T13:55:12.462Z,73.43
2023-04-18T13:57:41.135Z,73.57
2023-04-18T14:00:13.804Z,73.22
2023-04-18T14:02:42.387Z,73.17
2023-04-18T14:05:10.806Z,73.23
2023-04-18T14:07:39.245Z,73.29
2023-04-18T14:10:08.014Z,73.04
2023-04-18T14:12:37.507Z,73.09
2023-04-18T14:15:06.935Z,73.25
2023-04-18T14:17:34.820Z,73.09
2023-04-18T14:20:03.091Z,73.16
2023-04-18T14:22:31.100Z,73.05
2023-04-18T14:24:59.087Z,73.00
2023-04-18T14:27:27.539Z,73.00
2023-04-18T14:29:56.592Z,72.89
2023-04-18T14:32:24.405Z,73.00
2023-04-18T14:34:52.475Z,72.77
2023-04-18T14:37:23.226Z,72.62
2023-04-18T14:39:51.031Z,72.64
2023-04-18T14:42:19.085Z,72.66
2023-04-18T14:44:49.745Z,72.70
2023-04-18T14:47:18.833Z,72.60
2023-04-18T14:49:46.552Z,72.59
2023-04-18T14:52:14.335Z,72.57
2023-04-18T14:54:42.106Z,72.52
2023-04-18T14:57:10.231Z,72.45
2023-04-18T14:59:38.090Z,72.53
2023-04-18T15:02:06.013Z,72.55
2023-04-18T15:04:35.396Z,72.19
2023-04-18T15:07:03.277Z,72.32
2023-04-18T15:09:32.964Z,72.35
2023-04-18T15:12:00.742Z,72.28
2023-04-18T15:14:28.735Z,72.10
2023-04-18T15:16:57.315Z,72.23
2023-04-18T15:19:25.246Z,72.13
2023-04-18T15:21:54.412Z,72.24
2023-04-18T15:24:25.858Z,71.85
2023-04-18T15:26:53.757Z,71.78
2023-04-18T15:29:21.663Z,71.79
2023-04-18T15:31:49.490Z,71.93
2023-04-18T15:34:18.746Z,71.70
2023-04-18T15:36:48.679Z,71.99
2023-04-18T15:39:21.832Z,71.83
2023-04-18T15:41:53.135Z,71.74
2023-04-18T15:44:21.003Z,71.58
2023-04-18T15:46:49.356Z,71.65
2023-04-18T15:49:17.206Z,71.69
2023-04-18T15:51:45.010Z,71.67
2023-04-18T15:54:12.945Z,71.82
2023-04-18T15:56:44.632Z,71.80
2023-04-18T15:59:13.159Z,71.38
2023-04-18T16:01:40.978Z,71.31
2023-04-18T16:04:08.970Z,71.38
2023-04-18T16:06:37.478Z,71.46
2023-04-18T16:09:06.800Z,71.38
2023-04-18T16:11:34.738Z,71.59
2023-04-18T16:14:03.848Z,71.52
2023-04-18T16:16:31.710Z,71.21
2023-04-18T16:18:59.581Z,71.19
2023-04-18T16:21:28.143Z,71.18
2023-04-18T16:23:56.067Z,71.36
2023-04-18T16:26:24.839Z,71.31
2023-04-18T16:28:52.848Z,71.19
2023-04-18T16:31:22.267Z,71.16
2023-04-18T16:33:52.430Z,71.28
2023-04-18T16:36:20.423Z,70.85
2023-04-18T16:38:48.156Z,71.17
2023-04-18T16:41:16.105Z,70.76
2023-04-18T16:43:43.892Z,71.10
2023-04-18T16:46:11.850Z,71.06
2023-04-18T16:48:41.717Z,70.78
2023-04-18T16:51:09.471Z,71.00
2023-04-18T16:53:37.235Z,71.05
2023-04-18T16:56:05.336Z,71.18
2023-04-18T16:58:33.095Z,70.55
2023-04-18T17:01:02.507Z,70.68
2023-04-18T17:03:30.524Z,70.57
2023-04-18T17:06:00.800Z,70.30
2023-04-18T17:08:29.120Z,70.73
2023-04-18T17:10:57.298Z,70.74
2023-04-18T17:13:26.762Z,70.40
2023-04-18T17:15:54.592Z,70.45
2023-04-18T17:18:22.519Z,70.38
2023-04-18T17:20:50.349Z,70.32
2023-04-18T17:23:19.435Z,70.46
2023-04-18T17:25:47.526Z,70.54
2023-04-18T17:28:15.483Z,70.93
2023-04-18T17:30:43.592Z,70.30
2023-04-18T17:33:11.522Z,70.51
2023-04-18T17:35:41.360Z,70.32
2023-04-18T17:38:10.459Z,70.71
2023-04-18T17:40:40.469Z,70.56
2023-04-18T17:43:08.241Z,70.13
2023-04-18T17:45:36.230Z,70.02
2023-04-18T17:48:04.331Z,70.66
2023-04-18T17:50:32.160Z,70.61
2023-04-18T17:52:59.904Z,69.98
2023-04-18T17:55:27.705Z,70.48
2023-04-18T17:57:57.381Z,70.21
2023-04-18T18:00:25.665Z,70.22
2023-04-18T18:02:53.635Z,70.25
2023-04-18T18:05:21.673Z,70.30
2023-04-18T18:07:50.167Z,70.10
2023-04-18T18:10:19.968Z,70.09
2023-04-18T18:12:48.004Z,70.00
2023-04-18T18:15:17.177Z,70.27
2023-04-18T18:17:45.031Z,70.02
2023-04-18T18:20:13.304Z,70.00
2023-04-18T18:22:41.113Z,69.98
2023-04-18T18:25:09.518Z,70.46
2023-04-18T18:27:37.881Z,70.36
2023-04-18T18:30:06.674Z,70.02
2023-04-18T18:32:35.903Z,69.94
2023-04-18T18:35:05.368Z,70.10
2023-04-18T18:37:33.294Z,70.18
2023-04-18T18:40:01.093Z,69.89
2023-04-18T18:42:28.935Z,70.14
2023-04-18T18:44:56.674Z,69.91
2023-04-18T18:47:24.536Z,70.11
2023-04-18T18:49:53.668Z,70.38
2023-04-18T18:52:21.801Z,70.34
2023-04-18T18:54:49.660Z,70.15
2023-04-18T18:57:17.438Z,70.26
2023-04-18T18:59:45.200Z,70.34
2023-04-18T19:02:13.147Z,70.26
2023-04-18T19:04:41.174Z,70.59
2023-04-18T19:07:10.519Z,70.40
2023-04-18T19:09:38.310Z,70.16
2023-04-18T19:12:07.029Z,69.76
2023-04-18T19:14:35.028Z,70.38
2023-04-18T19:17:03.205Z,70.34
2023-04-18T19:19:30.973Z,70.21
2023-04-18T19:22:00.389Z,70.10
2023-04-18T19:24:31.751Z,70.42
2023-04-18T19:26:59.856Z,69.98
2023-04-18T19:29:29.198Z,70.22
2023-04-18T19:31:58.580Z,70.28
2023-04-18T19:34:26.657Z,70.16
2023-04-18T19:36:54.491Z,70.34
2023-04-18T19:39:22.343Z,70.39
2023-04-18T19:41:51.613Z,70.04
2023-04-18T19:44:19.504Z,70.57
2023-04-18T19:46:47.371Z,70.42
2023-04-18T19:49:15.403Z,70.17
2023-04-18T19:51:43.275Z,70.31
2023-04-18T19:54:11.113Z,70.20
2023-04-18T19:56:38.948Z,70.19
2023-04-18T19:59:08.099Z,70.59
2023-04-18T20:01:35.924Z,70.13
2023-04-18T20:04:04.102Z,70.55
2023-04-18T20:06:32.005Z,70.36
2023-04-18T20:08:59.788Z,70.29
2023-04-18T20:11:27.662Z,70.12
2023-04-18T20:13:56.542Z,70.22
2023-04-18T20:16:25.750Z,70.26
2023-04-18T20:18:55.032Z,70.20
2023-04-18T20:21:22.993Z,70.09
2023-04-18T20:23:51.111Z,70.62
2023-04-18T20:26:19.330Z,70.36
2023-04-18T20:28:47.170Z,70.34
2023-04-18T20:31:14.983Z,70.58
2023-04-18T20:33:44.126Z,70.60
2023-04-18T20:36:11.933Z,70.30
2023-04-18T20:38:40.130Z,70.55
2023-04-18T20:41:10.651Z,70.63
2023-04-18T20:43:38.609Z,70.73
2023-04-18T20:46:06.880Z,70.46
2023-04-18T20:48:34.681Z,70.78
2023-04-18T20:51:03.825Z,70.55
2023-04-18T20:53:32.013Z,70.52
2023-04-18T20:56:01.885Z,70.45
2023-04-18T20:58:30.263Z,70.83
2023-04-18T21:00:58.080Z,70.86
2023-04-18T21:03:26.176Z,70.74
2023-04-18T21:05:54.086Z,70.86
2023-04-18T21:08:23.250Z,71.05
2023-04-18T21:10:50.986Z,70.92
2023-04-18T21:13:18.747Z,70.76
2023-04-18T21:15:46.552Z,71.00
2023-04-18T21:18:14.394Z,70.99
2023-04-18T21:20:42.135Z,70.77
2023-04-18T21:23:09.898Z,71.17
2023-04-18T21:25:39.000Z,70.85
2023-04-18T21:28:07.843Z,71.15
2023-04-18T21:30:35.642Z,70.99
2023-04-18T21:33:03.564Z,71.27
2023-04-18T21:35:31.394Z,71.12
2023-04-18T21:37:59.457Z,70.98
2023-04-18T21:40:30.529Z,71.37
2023-04-18T21:42:59.773Z,71.02
2023-04-18T21:45:27.635Z,71.12
2023-04-18T21:47:55.442Z,71.54
2023-04-18T21:50:23.470Z,71.65
2023-04-18T21:52:51.246Z,71.43
2023-04-18T21:55:19.104Z,71.62
2023-04-18T21:57:46.839Z,71.43
2023-04-18T22:00:17.037Z,71.22
2023-04-18T22:06:36.081Z,71.79
2023-04-18T22:09:05.957Z,71.68
2023-04-18T22:11:33.702Z,71.64
2023-04-18T22:14:01.454Z,71.50
2023-04-18T22:16:30.473Z,71.89
2023-04-18T22:18:58.303Z,71.86
2023-04-18T22:21:26.450Z,71.58
2023-04-18T22:23:55.604Z,71.67
2023-04-18T22:26:23.539Z,72.05
2023-04-18T22:28:51.583Z,71.94
2023-04-18T22:31:19.417Z,71.98
2023-04-18T22:33:47.457Z,71.75
2023-04-18T22:36:15.281Z,72.08
2023-04-18T22:38:43.048Z,72.10
2023-04-18T22:41:12.955Z,71.91
2023-04-18T22:43:40.721Z,71.84
2023-04-18T22:46:08.506Z,72.45
2023-04-18T22:48:36.303Z,72.31
2023-04-18T22:51:04.116Z,72.25
2023-04-18T22:53:31.908Z,72.13
2023-04-18T22:55:59.959Z,71.95
2023-04-18T22:58:29.659Z,72.11
2023-04-18T23:00:57.497Z,72.09
2023-04-18T23:03:25.340Z,72.20
2023-04-18T23:05:53.484Z,71.79
2023-04-18T23:08:22.484Z,72.39
2023-04-18T23:10:50.412Z,72.12
2023-04-18T23:13:18.193Z,72.33
2023-04-18T23:15:47.469Z,72.34
2023-04-18T23:18:15.570Z,72.15
2023-04-18T23:20:43.346Z,72.29
2023-04-18T23:23:11.126Z,72.49
2023-04-18T23:25:38.897Z,72.31
2023-04-18T23:28:06.904Z,72.27
2023-04-18T23:30:37.075Z,72.39
2023-04-18T23:33:06.584Z,72.45
2023-04-18T23:35:34.359Z,72.50
2023-04-18T23:38:02.125Z,72.30
2023-04-18T23:40:29.877Z,72.35
2023-04-18T23:42:57.604Z,72.47
2023-04-18T23:45:25.431Z,72.37
2023-04-18T23:47:53.262Z,72.35
2023-04-18T23:50:22.438Z,72.54
2023-04-18T23:52:50.211Z,72.37
2023-04-18T23:55:18.444Z,72.29
2023-04-18T23:57:46.206Z,72.29
